Time;durP1;ratioP1;P1;durP2;ratioP2;P2;SDS_P1;SDS_P2;PMS_P1;PMS_P2;Temp;Humidity;BMP_temperature;BMP_pressure;BME280_temperature;BME280_humidity;BME280_pressure;Samples;Min_cycle;Max_cycle;Signal;HPM_P1;HPM_P2
2023/05/16 00:00:33;;;;;;;2.95;1.65;;;;;;;10.39;100.00;101412.28;5016933;28;20040;-70
2023/05/16 00:03:03;;;;;;;6.53;1.90;;;;;;;10.32;100.00;101424.97;5014110;28;20053;-69
2023/05/16 00:05:29;;;;;;;3.05;1.48;;;;;;;10.26;100.00;101426.31;5019499;28;20115;-69
2023/05/16 00:07:54;;;;;;;6.03;1.85;;;;;;;10.20;100.00;101434.66;5019338;28;20427;-70
2023/05/16 00:10:20;;;;;;;4.97;1.60;;;;;;;10.12;100.00;101437.13;5023549;28;20045;-70
2023/05/16 00:12:50;;;;;;;5.05;1.90;;;;;;;10.03;100.00;101433.56;5020950;28;20021;-70
2023/05/16 00:15:16;;;;;;;5.95;1.65;;;;;;;10.15;100.00;101431.63;5022198;28;20280;-70
2023/05/16 00:17:45;;;;;;;6.53;1.70;;;;;;;10.03;100.00;101430.16;5020068;28;20072;-70
2023/05/16 00:20:13;;;;;;;6.40;1.70;;;;;;;10.14;100.00;101436.00;5016867;28;20073;-70
2023/05/16 00:22:39;;;;;;;8.60;2.42;;;;;;;9.99;100.00;101441.75;5019812;28;20047;-70
2023/05/16 00:25:07;;;;;;;10.57;2.45;;;;;;;10.03;100.00;101443.13;5017476;28;20155;-69
2023/05/16 00:27:34;;;;;;;6.10;2.30;;;;;;;10.05;100.00;101446.38;5019797;28;20172;-69
2023/05/16 00:30:00;;;;;;;11.38;2.42;;;;;;;10.07;100.00;101447.06;5018571;28;20607;-69
2023/05/16 00:32:26;;;;;;;7.68;2.50;;;;;;;10.07;100.00;101447.06;5015997;28;20037;-70
2023/05/16 00:34:51;;;;;;;7.60;2.85;;;;;;;10.07;100.00;101447.06;5013902;28;20030;-70
2023/05/16 00:37:17;;;;;;;10.60;3.63;;;;;;;10.06;100.00;101448.03;5021560;28;20539;-70
2023/05/16 00:39:42;;;;;;;10.98;2.10;;;;;;;10.11;100.00;101449.25;5020371;28;20037;-70
2023/05/16 00:42:08;;;;;;;6.97;2.22;;;;;;;10.07;100.00;101453.06;5022532;28;20136;-70
2023/05/16 00:44:33;;;;;;;8.13;2.70;;;;;;;9.99;100.00;101447.75;5024721;28;20057;-69
2023/05/16 00:47:01;;;;;;;10.48;2.40;;;;;;;9.89;100.00;101447.75;5012974;28;20037;-70
2023/05/16 00:49:27;;;;;;;7.43;2.42;;;;;;;9.87;100.00;101446.22;5001332;28;20061;-70
2023/05/16 00:51:53;;;;;;;11.68;2.35;;;;;;;9.79;100.00;101448.69;5015695;28;20033;-70
2023/05/16 00:54:24;;;;;;;10.90;2.90;;;;;;;9.81;100.00;101446.78;5013573;28;20137;-70
2023/05/16 00:56:50;;;;;;;8.20;2.47;;;;;;;9.81;100.00;101441.59;5020055;28;20033;-70
2023/05/16 00:59:16;;;;;;;14.18;2.70;;;;;;;9.77;100.00;101450.59;5014365;28;20419;-70
2023/05/16 01:01:45;;;;;;;10.52;2.95;;;;;;;9.72;100.00;101458.78;5014092;28;20029;-70
2023/05/16 01:04:11;;;;;;;16.23;2.75;;;;;;;9.77;100.00;101451.41;5016517;28;20302;-70
2023/05/16 01:06:36;;;;;;;11.82;2.67;;;;;;;9.68;100.00;101455.63;5015641;28;20504;-70
2023/05/16 01:09:06;;;;;;;9.10;2.80;;;;;;;9.67;100.00;101461.75;5023938;28;20045;-70
2023/05/16 01:11:38;;;;;;;8.40;2.92;;;;;;;9.79;100.00;101464.22;5015790;28;20546;-69
2023/05/16 01:14:28;;;;;;;11.83;2.80;;;;;;;9.70;100.00;101464.09;5020937;28;20053;-69
2023/05/16 01:17:07;;;;;;;11.90;2.90;;;;;;;9.63;100.00;101468.16;5014895;28;20469;-69
2023/05/16 01:19:51;;;;;;;11.43;2.83;;;;;;;9.70;100.00;101477.03;5016916;28;20077;-70
2023/05/16 01:22:30;;;;;;;13.98;3.10;;;;;;;9.62;100.00;101476.06;5018485;28;20038;-70
2023/05/16 01:25:24;;;;;;;14.90;3.08;;;;;;;9.63;100.00;101472.53;4993253;28;20048;-69
2023/05/16 01:27:51;;;;;;;;;;;;;;;9.65;100.00;101468.84;5011200;28;20561;-70
2023/05/16 01:30:18;;;;;;;19.73;2.55;;;;;;;9.62;100.00;101479.47;5015143;28;19917;-70
2023/05/16 01:32:44;;;;;;;14.80;2.92;;;;;;;9.47;100.00;101479.00;5014586;28;20040;-70
2023/05/16 01:35:13;;;;;;;9.68;2.85;;;;;;;9.43;100.00;101480.22;4996100;28;20042;-70
2023/05/16 01:37:51;;;;;;;15.38;3.10;;;;;;;9.51;100.00;101484.75;5000935;28;20029;-70
2023/05/16 01:40:25;;;;;;;17.85;3.53;;;;;;;9.42;100.00;101488.13;5015755;28;20072;-70
2023/05/16 01:42:53;;;;;;;16.48;3.33;;;;;;;9.51;100.00;101484.75;5015206;28;20548;-70
2023/05/16 01:45:27;;;;;;;18.85;2.83;;;;;;;9.56;100.00;101490.34;5012274;28;20029;-70
2023/05/16 01:48:16;;;;;;;17.45;2.95;;;;;;;9.65;100.00;101489.56;4998569;28;20026;-70
2023/05/16 01:50:45;;;;;;;10.85;3.30;;;;;;;9.55;100.00;101493.91;5003723;28;20034;-70
2023/05/16 01:53:16;;;;;;;14.25;4.13;;;;;;;9.48;100.00;101491.00;5000839;28;20038;-69
2023/05/16 01:55:50;;;;;;;9.55;2.95;;;;;;;9.42;100.00;101498.47;5014589;28;20025;-70
2023/05/16 01:58:19;;;;;;;18.67;3.13;;;;;;;9.49;100.00;101503.03;5019984;28;22812;-70
2023/05/16 02:00:45;;;;;;;17.60;3.55;;;;;;;9.41;100.00;101504.63;5018767;28;20641;-70
2023/05/16 02:03:10;;;;;;;16.33;4.22;;;;;;;9.42;100.00;101508.81;5001659;28;20111;-70
2023/05/16 02:05:36;;;;;;;16.42;3.67;;;;;;;9.43;100.00;101505.31;5016590;28;20018;-69
2023/05/16 02:08:03;;;;;;;8.75;2.92;;;;;;;9.33;100.00;101515.63;5018165;28;20629;-70
2023/05/16 02:10:28;;;;;;;21.20;3.53;;;;;;;9.28;100.00;101513.41;5023293;28;20484;-69
2023/05/16 02:12:54;;;;;;;12.60;3.20;;;;;;;9.30;100.00;101521.88;5026285;28;20118;-70
2023/05/16 02:15:20;;;;;;;15.77;3.58;;;;;;;9.27;100.00;101531.69;5022820;28;20064;-70
2023/05/16 02:17:46;;;;;;;22.40;5.82;;;;;;;9.34;100.00;101523.28;5022444;28;20128;-70
2023/05/16 02:20:12;;;;;;;17.25;3.75;;;;;;;9.44;100.00;101525.88;5027866;28;20037;-70
2023/05/16 02:22:45;;;;;;;19.67;4.15;;;;;;;9.34;100.00;101522.44;5003355;28;20029;-70
2023/05/16 02:25:11;;;;;;;18.83;4.18;;;;;;;9.31;100.00;101522.72;5013269;28;20523;-70
2023/05/16 02:27:36;;;;;;;21.13;3.08;;;;;;;9.30;100.00;101523.63;5002478;28;20115;-70
2023/05/16 02:30:04;;;;;;;17.55;4.22;;;;;;;9.25;100.00;101533.56;5016607;28;20045;-70
2023/05/16 02:32:31;;;;;;;18.75;3.22;;;;;;;9.30;100.00;101539.97;5026166;28;20029;-70
2023/05/16 02:34:56;;;;;;;13.73;2.90;;;;;;;9.12;100.00;101536.38;5020023;28;20711;-70
2023/05/16 02:37:23;;;;;;;10.68;2.78;;;;;;;9.07;100.00;101533.34;5029601;28;20030;-70
2023/05/16 02:39:48;;;;;;;18.35;3.58;;;;;;;9.08;100.00;101540.16;5010927;28;20041;-70
2023/05/16 02:42:14;;;;;;;19.42;2.97;;;;;;;8.99;100.00;101531.41;5026985;28;20057;-70
2023/05/16 02:44:40;;;;;;;22.95;3.35;;;;;;;8.91;100.00;101539.78;5044459;28;20068;-70
2023/05/16 02:47:06;;;;;;;17.10;2.67;;;;;;;8.89;100.00;101552.03;5024444;28;20393;-70
2023/05/16 02:49:31;;;;;;;13.25;2.83;;;;;;;8.85;100.00;101552.41;5025590;28;20057;-70
2023/05/16 02:51:56;;;;;;;18.40;2.97;;;;;;;8.94;100.00;101549.06;5025396;28;20479;-70
2023/05/16 02:54:22;;;;;;;23.30;3.72;;;;;;;8.95;100.00;101555.88;5020174;28;20037;-70
2023/05/16 02:56:47;;;;;;;17.58;2.67;;;;;;;8.87;100.00;101555.69;5020670;28;20373;-70
2023/05/16 02:59:13;;;;;;;9.07;2.30;;;;;;;8.85;100.00;101565.34;5022988;28;20057;-70
2023/05/16 03:01:38;;;;;;;26.35;2.70;;;;;;;8.76;100.00;101575.50;5010159;28;20018;-70
2023/05/16 03:04:04;;;;;;;12.95;2.45;;;;;;;8.76;100.00;101572.09;5022180;28;20111;-70
2023/05/16 03:06:30;;;;;;;25.35;3.25;;;;;;;8.69;100.00;101582.09;5022461;28;20036;-70
2023/05/16 03:08:58;;;;;;;24.00;3.17;;;;;;;8.66;100.00;101579.75;5013487;28;20051;-70
2023/05/16 03:11:27;;;;;;;14.23;2.85;;;;;;;8.58;100.00;101587.31;5028482;28;20486;-70
2023/05/16 03:13:53;;;;;;;15.13;2.53;;;;;;;8.52;100.00;101588.63;5023673;28;20041;-70
2023/05/16 03:16:19;;;;;;;11.15;2.65;;;;;;;8.46;100.00;101593.50;5023520;28;20047;-70
2023/05/16 03:18:44;;;;;;;12.88;3.53;;;;;;;8.42;100.00;101602.41;5022296;28;20640;-70
2023/05/16 03:21:10;;;;;;;17.10;2.65;;;;;;;8.39;100.00;101595.69;5023453;28;20079;-70
2023/05/16 03:23:35;;;;;;;22.83;2.67;;;;;;;8.43;100.00;101596.31;5005636;28;20072;-70
2023/05/16 03:26:03;;;;;;;15.25;3.35;;;;;;;8.32;100.00;101597.13;5032252;28;20084;-70
2023/05/16 03:28:29;;;;;;;19.80;2.67;;;;;;;8.30;100.00;101593.84;5025402;28;20049;-70
2023/05/16 03:30:54;;;;;;;13.77;2.20;;;;;;;8.28;100.00;101593.97;5023337;28;20036;-70
2023/05/16 03:33:20;;;;;;;16.98;2.40;;;;;;;8.24;100.00;101595.16;5029263;28;20674;-70
2023/05/16 03:35:46;;;;;;;18.10;3.05;;;;;;;8.24;100.00;101594.34;5027134;28;20553;-70
2023/05/16 03:38:11;;;;;;;14.75;2.45;;;;;;;8.16;100.00;101595.75;5028589;28;20064;-70
2023/05/16 03:40:37;;;;;;;15.38;2.78;;;;;;;8.22;100.00;101603.97;5012022;28;20861;-70
2023/05/16 03:43:02;;;;;;;15.60;3.30;;;;;;;8.14;100.00;101607.97;5032693;28;20039;-70
2023/05/16 03:45:31;;;;;;;14.73;3.38;;;;;;;8.15;100.00;101606.22;5029686;28;20052;-70
2023/05/16 03:47:57;;;;;;;19.60;2.33;;;;;;;8.06;100.00;101612.94;5032265;28;20044;-70
2023/05/16 03:50:22;;;;;;;16.48;2.78;;;;;;;7.95;100.00;101618.13;5030486;28;20071;-70
2023/05/16 03:52:48;;;;;;;19.77;2.50;;;;;;;7.93;100.00;101619.97;5026977;28;20407;-71
2023/05/16 03:55:14;;;;;;;17.50;2.42;;;;;;;7.86;100.00;101622.22;5024983;28;20056;-70
2023/05/16 03:57:43;;;;;;;18.75;3.40;;;;;;;7.90;100.00;101622.81;5027954;28;20138;-70
2023/05/16 04:00:12;;;;;;;17.75;3.50;;;;;;;7.73;100.00;101627.50;5009971;28;20041;-70
2023/05/16 04:02:42;;;;;;;28.35;3.53;;;;;;;7.83;100.00;101627.59;5007011;28;20542;-70
2023/05/16 04:05:09;;;;;;;20.27;2.20;;;;;;;7.83;100.00;101629.38;5003717;28;20068;-70
2023/05/16 04:07:36;;;;;;;11.98;1.73;;;;;;;7.84;100.00;101631.84;5027307;28;20045;-70
2023/05/16 04:10:02;;;;;;;15.35;2.03;;;;;;;7.85;100.00;101630.88;5022163;28;20154;-70
2023/05/16 04:12:27;;;;;;;14.25;2.85;;;;;;;7.83;100.00;101642.28;5030598;28;20383;-70
2023/05/16 04:14:53;;;;;;;14.05;2.10;;;;;;;7.76;100.00;101647.06;5024763;28;20052;-70
2023/05/16 04:17:18;;;;;;;13.05;2.17;;;;;;;7.77;100.00;101646.97;5024246;28;20029;-70
2023/05/16 04:19:44;;;;;;;15.57;2.63;;;;;;;7.75;100.00;101648.84;5020388;28;20553;-71
2023/05/16 04:22:09;;;;;;;18.13;2.70;;;;;;;7.77;100.00;101654.72;5000971;28;20040;-70
2023/05/16 04:24:36;;;;;;;16.58;2.10;;;;;;;7.79;100.00;101652.84;5023894;28;20049;-70
2023/05/16 04:27:01;;;;;;;12.65;1.70;;;;;;;7.77;100.00;101656.47;5028243;28;20036;-70
2023/05/16 04:29:27;;;;;;;15.05;2.10;;;;;;;7.76;100.00;101655.66;5025984;28;20549;-70
2023/05/16 04:31:52;;;;;;;19.35;2.95;;;;;;;7.77;100.00;101654.72;5013569;28;20099;-70
2023/05/16 04:34:18;;;;;;;15.25;1.83;;;;;;;7.78;100.00;101665.88;5028571;28;20057;-70
2023/05/16 04:36:43;;;;;;;14.82;2.15;;;;;;;7.84;100.00;101664.59;5022512;28;20016;-70
2023/05/16 04:39:09;;;;;;;8.85;1.40;;;;;;;7.83;100.00;101668.91;5033051;28;20056;-70
2023/05/16 04:41:35;;;;;;;10.30;1.80;;;;;;;7.80;100.00;101669.97;5025331;28;20030;-70
2023/05/16 04:44:03;;;;;;;14.48;2.13;;;;;;;7.82;100.00;101676.78;5005135;28;20088;-70
2023/05/16 04:46:29;;;;;;;19.80;1.92;;;;;;;7.73;100.00;101678.31;5022947;28;20030;-70
2023/05/16 04:48:55;;;;;;;17.15;2.40;;;;;;;7.74;100.00;101683.38;5030382;28;20144;-70
2023/05/16 04:51:21;;;;;;;16.60;2.65;;;;;;;7.73;100.00;101688.63;5023885;28;20060;-70
2023/05/16 04:53:47;;;;;;;20.02;3.03;;;;;;;7.79;100.00;101685.59;5028617;28;20049;-70
2023/05/16 04:56:12;;;;;;;12.55;1.90;;;;;;;7.81;100.00;101688.88;5020037;28;20033;-70
2023/05/16 04:58:38;;;;;;;11.95;2.13;;;;;;;7.81;100.00;101691.44;5030072;28;20041;-70
2023/05/16 05:01:03;;;;;;;18.05;2.42;;;;;;;7.82;100.00;101692.28;5022361;28;20037;-70
2023/05/16 05:03:29;;;;;;;18.75;2.53;;;;;;;7.84;100.00;101696.41;5020417;28;20084;-70
2023/05/16 05:05:54;;;;;;;15.20;2.67;;;;;;;7.90;100.00;101690.75;5027547;28;20403;-70
2023/05/16 05:08:20;;;;;;;15.20;2.42;;;;;;;7.97;100.00;101697.09;5021256;28;20045;-70
2023/05/16 05:10:46;;;;;;;12.10;3.22;;;;;;;8.08;100.00;101692.88;5026037;28;20434;-70
2023/05/16 05:13:11;;;;;;;15.75;2.97;;;;;;;8.11;100.00;101705.56;5021101;28;20041;-70
2023/05/16 05:15:37;;;;;;;18.40;2.00;;;;;;;8.15;100.00;101707.78;5020424;28;20025;-70
2023/05/16 05:18:03;;;;;;;14.30;2.00;;;;;;;8.22;100.00;101704.75;5044913;23;20042;-77
2023/05/16 05:20:28;;;;;;;21.83;3.58;;;;;;;8.24;100.00;101701.09;5029213;28;20036;-75
2023/05/16 05:22:54;;;;;;;19.08;2.60;;;;;;;8.35;100.00;101705.44;5008820;28;20057;-76
2023/05/16 05:25:19;;;;;;;11.38;1.73;;;;;;;8.29;100.00;101704.16;5009950;28;20033;-77
2023/05/16 05:27:45;;;;;;;14.27;2.50;;;;;;;8.31;100.00;101706.63;5023991;28;20040;-78
2023/05/16 05:30:10;;;;;;;15.82;2.35;;;;;;;8.31;100.00;101712.59;5010795;28;20633;-78
2023/05/16 05:32:36;;;;;;;14.10;2.13;;;;;;;8.36;100.00;101720.81;4993380;28;20168;-76
2023/05/16 05:35:02;;;;;;;13.32;2.20;;;;;;;8.39;100.00;101717.97;5009940;28;20042;-77
2023/05/16 05:37:28;;;;;;;11.00;1.75;;;;;;;8.38;100.00;101724.13;5030609;28;20565;-77
2023/05/16 05:39:54;;;;;;;11.48;2.00;;;;;;;8.43;100.00;101718.59;5010237;28;20037;-79
2023/05/16 05:42:20;;;;;;;17.73;2.60;;;;;;;8.47;99.66;101726.94;5028837;28;20056;-76
2023/05/16 05:44:45;;;;;;;13.70;2.88;;;;;;;8.57;98.98;101725.31;5030529;28;20176;-77
2023/05/16 05:47:11;;;;;;;12.65;1.92;;;;;;;8.74;97.97;101731.72;5030470;28;20111;-78
2023/05/16 05:49:37;;;;;;;13.15;2.15;;;;;;;8.95;96.27;101729.19;5014176;28;20056;-79
2023/05/16 05:52:02;;;;;;;13.57;1.80;;;;;;;9.13;95.93;101738.03;5029917;28;20033;-78
2023/05/16 05:54:29;;;;;;;15.10;2.00;;;;;;;9.27;95.05;101738.72;5027942;28;20177;-79
2023/05/16 05:56:58;;;;;;;14.18;2.50;;;;;;;9.53;93.90;101737.41;5029296;28;20096;-76
2023/05/16 05:59:24;;;;;;;14.98;2.22;;;;;;;9.64;91.33;101733.91;5008700;28;20428;-77
2023/05/16 06:01:51;;;;;;;19.48;2.25;;;;;;;9.56;88.39;101733.75;5012345;28;20033;-76
2023/05/16 06:04:20;;;;;;;12.50;1.70;;;;;;;9.78;88.43;101732.78;5014777;28;20042;-77
2023/05/16 06:06:46;;;;;;;17.75;2.70;;;;;;;9.94;88.62;101746.13;5024813;28;20140;-76
2023/05/16 06:09:13;;;;;;;15.68;2.78;;;;;;;10.31;89.25;101743.00;5024897;28;20223;-76
2023/05/16 06:11:39;;;;;;;11.65;2.88;;;;;;;10.38;87.14;101739.88;5004552;28;20040;-78
2023/05/16 06:14:05;;;;;;;14.77;3.20;;;;;;;10.53;84.36;101748.97;5026421;28;20045;-78
2023/05/16 06:16:30;;;;;;;9.27;1.80;;;;;;;10.57;85.13;101750.34;5014871;28;20029;-79
2023/05/16 06:18:56;;;;;;;18.50;2.35;;;;;;;10.83;84.14;101755.84;5006992;28;20099;-78
2023/05/16 06:21:22;;;;;;;26.00;2.08;;;;;;;10.95;82.24;101753.94;5012785;28;20045;-79
2023/05/16 06:23:47;;;;;;;9.30;1.73;;;;;;;10.99;82.62;101754.50;5032570;28;20048;-77
2023/05/16 06:26:13;;;;;;;18.38;2.55;;;;;;;11.16;83.00;101761.59;5034808;28;20087;-77
2023/05/16 06:28:38;;;;;;;6.70;1.38;;;;;;;11.59;81.97;101751.75;5008409;28;20045;-77
2023/05/16 06:31:03;;;;;;;14.00;1.75;;;;;;;11.48;80.65;101750.91;5011981;28;20033;-77
2023/05/16 06:33:29;;;;;;;15.68;2.20;;;;;;;11.66;80.60;101747.63;5011889;28;20033;-77
2023/05/16 06:35:54;;;;;;;9.77;2.60;;;;;;;11.92;79.87;101752.22;5007676;28;20450;-77
2023/05/16 06:38:20;;;;;;;19.20;4.80;;;;;;;11.74;77.57;101754.72;5011706;28;20037;-77
2023/05/16 06:40:46;;;;;;;12.45;1.67;;;;;;;11.63;74.51;101755.69;5033023;28;20404;-78
2023/05/16 06:43:11;;;;;;;21.00;2.83;;;;;;;11.73;75.30;101753.06;4996481;28;20065;-78
2023/05/16 06:45:37;;;;;;;14.00;2.28;;;;;;;11.72;78.04;101761.84;5024254;28;20037;-77
2023/05/16 06:48:14;;;;;;;14.02;2.58;;;;;;;12.24;76.22;101768.28;5005331;28;20484;-80
2023/05/16 06:50:40;;;;;;;19.45;1.80;;;;;;;12.28;73.19;101768.78;5034667;28;20031;-79
2023/05/16 06:53:06;;;;;;;11.23;1.38;;;;;;;12.08;74.67;101768.06;5026788;28;20030;-82
2023/05/16 06:55:32;;;;;;;17.75;1.70;;;;;;;12.45;72.39;101770.66;5005718;28;20223;-80
2023/05/16 06:57:57;;;;;;;16.08;1.50;;;;;;;12.39;69.58;101767.78;5028310;28;20037;-77
2023/05/16 07:00:23;;;;;;;12.98;1.80;;;;;;;12.68;70.94;101761.59;5017716;28;20025;-79
2023/05/16 07:02:49;;;;;;;14.15;1.80;;;;;;;13.33;70.84;101758.84;5028499;28;20171;-78
2023/05/16 07:05:14;;;;;;;14.60;2.05;;;;;;;13.29;65.63;101750.47;5009353;28;20036;-77
2023/05/16 07:07:40;;;;;;;15.65;2.72;;;;;;;13.39;66.13;101753.00;5027741;28;20645;-77
2023/05/16 07:10:06;;;;;;;9.38;1.20;;;;;;;13.37;65.58;101757.56;5028499;28;20510;-77
2023/05/16 07:12:31;;;;;;;8.70;2.35;;;;;;;14.05;63.92;101751.63;4995035;28;20104;-77
2023/05/16 07:14:56;;;;;;;9.98;1.60;;;;;;;14.44;63.04;101758.16;5012274;28;20042;-78
2023/05/16 07:17:22;;;;;;;9.93;1.38;;;;;;;13.84;64.94;101757.22;5027963;28;20024;-77
2023/05/16 07:19:49;;;;;;;15.77;1.65;;;;;;;13.34;68.25;101766.50;5013969;28;20091;-76
2023/05/16 07:22:14;;;;;;;11.38;1.92;;;;;;;12.83;67.45;101770.56;5024419;28;20061;-76
2023/05/16 07:24:40;;;;;;;10.55;2.35;;;;;;;12.25;70.08;101766.50;5021370;28;20045;-77
2023/05/16 07:27:05;;;;;;;10.48;1.45;;;;;;;12.37;71.65;101783.53;5024877;28;20026;-77
2023/05/16 07:29:31;;;;;;;11.95;1.60;;;;;;;12.11;70.73;101779.94;5013775;28;20436;-77
2023/05/16 07:31:56;;;;;;;12.45;1.40;;;;;;;11.98;70.97;101785.44;5006365;28;20376;-77
2023/05/16 07:34:22;;;;;;;9.73;1.80;;;;;;;11.78;72.10;101788.06;4994941;28;20042;-78
2023/05/16 07:36:47;;;;;;;24.77;2.08;;;;;;;12.22;72.64;101784.97;5015662;28;20037;-78
2023/05/16 07:39:13;;;;;;;8.85;1.55;;;;;;;12.43;71.18;101788.19;4994397;28;20075;-79
2023/05/16 07:41:39;;;;;;;10.77;1.70;;;;;;;12.75;70.69;101786.09;5012726;28;20056;-79
2023/05/16 07:44:04;;;;;;;8.57;1.50;;;;;;;13.09;68.38;101780.25;5011785;28;20487;-77
2023/05/16 07:46:30;;;;;;;14.32;2.95;;;;;;;13.12;69.72;101778.16;5033875;28;20372;-77
2023/05/16 07:48:55;;;;;;;10.70;1.48;;;;;;;12.83;67.29;101778.38;5029263;28;20392;-78
2023/05/16 07:51:21;;;;;;;13.38;1.58;;;;;;;12.53;68.16;101782.13;5012868;28;20017;-77
2023/05/16 07:53:46;;;;;;;22.10;1.52;;;;;;;12.50;68.61;101780.59;5028048;28;20042;-77
2023/05/16 07:56:12;;;;;;;14.52;1.88;;;;;;;12.39;67.96;101786.81;5031964;28;20399;-79
2023/05/16 07:58:38;;;;;;;16.83;3.17;;;;;;;12.05;67.51;101784.78;4996718;28;20442;-82
2023/05/16 08:01:03;;;;;;;9.30;1.50;;;;;;;11.90;67.85;101777.53;5010270;28;20088;-80
2023/05/16 08:03:29;;;;;;;11.15;1.48;;;;;;;12.29;66.69;101785.22;5011329;28;20041;-79
2023/05/16 08:05:54;;;;;;;6.70;1.20;;;;;;;12.36;67.35;101776.72;4992807;28;20034;-81
2023/05/16 08:08:20;;;;;;;7.13;1.52;;;;;;;12.32;65.56;101777.13;5012957;28;20045;-78
2023/05/16 08:10:46;;;;;;;9.50;2.33;;;;;;;12.29;68.63;101780.84;4993056;28;20036;-79
2023/05/16 08:13:11;;;;;;;13.20;1.60;;;;;;;12.27;69.08;101780.16;5011402;28;20075;-78
2023/05/16 08:15:36;;;;;;;14.15;1.23;;;;;;;12.13;67.40;101785.81;5012301;28;20021;-79
2023/05/16 08:18:02;;;;;;;7.80;1.42;;;;;;;12.00;69.13;101786.97;5006886;28;20041;-78
2023/05/16 08:20:27;;;;;;;11.77;2.00;;;;;;;12.05;72.09;101787.38;5013666;28;20502;-80
2023/05/16 08:22:54;;;;;;;13.15;1.73;;;;;;;12.24;73.81;101794.28;5023985;22;20084;-69
2023/05/16 08:25:19;;;;;;;13.50;2.10;;;;;;;12.16;72.61;101791.56;5006506;28;20061;-69
2023/05/16 08:27:45;;;;;;;11.93;1.80;;;;;;;12.86;71.43;101783.28;5003473;28;20515;-69
2023/05/16 08:30:12;;;;;;;8.85;1.30;;;;;;;14.11;66.46;101784.94;5002923;28;20054;-69
2023/05/16 08:32:37;;;;;;;11.57;1.63;;;;;;;14.79;60.92;101783.25;5004661;28;20025;-68
2023/05/16 08:35:03;;;;;;;4.28;1.02;;;;;;;14.61;59.78;101785.97;4983612;28;20117;-69
2023/05/16 08:37:29;;;;;;;8.35;1.10;;;;;;;14.33;63.39;101791.38;4988190;28;20392;-69
2023/05/16 08:39:54;;;;;;;15.38;1.73;;;;;;;14.44;62.89;101790.28;5004753;28;20100;-69
2023/05/16 08:42:20;;;;;;;10.77;1.42;;;;;;;15.11;58.50;101784.28;5005584;28;20041;-69
2023/05/16 08:44:46;;;;;;;7.55;1.25;;;;;;;15.63;56.21;101775.28;4987121;28;20578;-70
2023/05/16 08:47:23;;;;;;;7.72;1.50;;;;;;;15.43;56.09;101780.06;5004245;28;20632;-70
2023/05/16 08:49:50;;;;;;;13.48;1.58;;;;;;;15.95;55.77;101769.19;5001885;28;20045;-69
2023/05/16 08:52:20;;;;;;;5.35;1.30;;;;;;;16.15;54.91;101772.25;4989273;28;20035;-70
2023/05/16 08:54:45;;;;;;;10.43;1.85;;;;;;;16.13;53.70;101761.94;4985127;28;20562;-70
2023/05/16 08:57:12;;;;;;;10.85;1.25;;;;;;;16.59;53.50;101774.34;4988102;28;20025;-70
2023/05/16 08:59:40;;;;;;;10.82;2.42;;;;;;;16.76;53.01;101772.44;4986687;28;20709;-70
2023/05/16 09:02:05;;;;;;;6.35;1.10;;;;;;;16.92;52.28;101768.94;4971821;28;20117;-69
2023/05/16 09:04:31;;;;;;;6.18;1.10;;;;;;;16.13;50.39;101782.88;5003901;28;20157;-70
2023/05/16 09:06:56;;;;;;;6.68;1.17;;;;;;;15.83;53.98;101784.44;5003948;28;20037;-70
2023/05/16 09:09:23;;;;;;;9.55;1.77;;;;;;;15.40;54.79;101780.38;4987942;28;20416;-69
2023/05/16 09:11:48;;;;;;;7.28;1.30;;;;;;;14.80;56.22;101787.47;4984724;28;20053;-70
2023/05/16 09:14:14;;;;;;;6.57;1.17;;;;;;;14.36;58.21;101790.25;4987718;28;20077;-70
2023/05/16 09:16:39;;;;;;;7.85;1.40;;;;;;;14.25;60.68;101791.34;5005003;28;20053;-69
2023/05/16 09:19:05;;;;;;;8.57;1.65;;;;;;;14.68;59.73;101786.16;4973501;28;20408;-69
2023/05/16 09:21:33;;;;;;;6.32;1.92;;;;;;;15.33;54.41;101782.81;5004276;28;20273;-70
2023/05/16 09:24:08;;;;;;;8.23;1.70;;;;;;;15.95;51.79;101774.44;5003493;28;20264;-70
2023/05/16 09:26:36;;;;;;;8.63;1.08;;;;;;;16.47;50.26;101770.47;5005277;28;20192;-70
2023/05/16 09:29:09;;;;;;;7.78;1.77;;;;;;;16.35;49.39;101778.72;4987357;28;20561;-69
2023/05/16 09:31:38;;;;;;;8.70;1.23;;;;;;;16.23;49.72;101774.81;4985569;28;20541;-69
2023/05/16 09:34:07;;;;;;;7.25;1.20;;;;;;;16.33;48.49;101765.00;5002469;28;20059;-70
2023/05/16 09:36:33;;;;;;;7.88;1.00;;;;;;;16.53;49.27;101767.97;5003599;28;20030;-70
2023/05/16 09:39:00;;;;;;;7.78;0.82;;;;;;;16.71;47.63;101764.31;5002881;28;20085;-69
2023/05/16 09:41:25;;;;;;;8.57;1.20;;;;;;;16.57;48.43;101760.59;4985761;28;20034;-69
2023/05/16 09:43:51;;;;;;;5.07;1.05;;;;;;;16.40;49.25;101759.88;5006941;28;20057;-69
2023/05/16 09:46:18;;;;;;;5.47;1.30;;;;;;;16.24;49.13;101762.59;5004649;28;20080;-69
2023/05/16 09:48:47;;;;;;;6.88;0.95;;;;;;;15.88;51.17;101760.38;5000990;28;20046;-69
2023/05/16 09:51:13;;;;;;;11.10;1.67;;;;;;;15.71;51.54;101763.03;4984421;28;20407;-69
2023/05/16 09:53:40;;;;;;;7.22;1.20;;;;;;;15.77;52.22;101766.81;4987412;28;20077;-69
2023/05/16 09:56:09;;;;;;;7.75;1.65;;;;;;;15.60;51.94;101757.34;5004615;28;20021;-69
2023/05/16 09:58:37;;;;;;;6.22;1.27;;;;;;;15.60;52.58;101768.59;5003502;28;20042;-70
2023/05/16 10:01:03;;;;;;;5.22;1.30;;;;;;;15.42;53.30;101765.34;4987803;28;20095;-69
2023/05/16 10:03:29;;;;;;;8.98;1.65;;;;;;;15.40;54.28;101770.72;4983981;28;20030;-69
2023/05/16 10:05:55;;;;;;;6.43;1.00;;;;;;;15.34;54.69;101766.97;4985891;28;20041;-69
2023/05/16 10:08:22;;;;;;;13.05;1.30;;;;;;;15.05;53.65;101774.47;4986370;28;20062;-69
2023/05/16 10:10:51;;;;;;;4.80;1.38;;;;;;;14.77;54.35;101775.56;4986056;28;20038;-68
2023/05/16 10:13:19;;;;;;;9.77;0.90;;;;;;;14.65;53.03;101774.22;5004450;28;20088;-69
2023/05/16 10:15:47;;;;;;;5.13;1.15;;;;;;;14.95;52.63;101775.44;5003699;28;20034;-69
2023/05/16 10:18:13;;;;;;;5.00;0.90;;;;;;;15.46;54.10;101764.03;4986630;28;20042;-70
2023/05/16 10:20:43;;;;;;;6.35;1.10;;;;;;;15.63;53.59;101770.88;5008584;28;20440;-68
2023/05/16 10:23:15;;;;;;;8.82;1.33;;;;;;;15.86;54.13;101772.81;5007509;28;20050;-69
2023/05/16 10:25:40;;;;;;;3.97;0.90;;;;;;;15.77;52.84;101780.69;5005647;28;20042;-69
2023/05/16 10:28:07;;;;;;;9.02;1.50;;;;;;;16.05;50.82;101782.06;5006220;28;20145;-69
2023/05/16 10:30:34;;;;;;;5.38;1.15;;;;;;;16.50;51.04;101775.34;5009061;28;20029;-69
2023/05/16 10:33:00;;;;;;;7.82;1.08;;;;;;;16.52;50.17;101776.84;5005737;28;20030;-70
2023/05/16 10:35:26;;;;;;;5.38;0.98;;;;;;;16.99;50.06;101763.81;4990551;28;20030;-69
2023/05/16 10:37:53;;;;;;;8.15;1.13;;;;;;;16.99;47.21;101766.44;4989570;28;20084;-70
2023/05/16 10:40:20;;;;;;;9.82;1.33;;;;;;;16.52;46.64;101763.75;4987562;28;20514;-69
2023/05/16 10:43:00;;;;;;;5.55;1.10;;;;;;;16.64;48.30;101756.31;4990450;28;20462;-70
2023/05/16 10:45:26;;;;;;;5.15;1.05;;;;;;;16.62;48.91;101763.53;5008686;28;20045;-69
2023/05/16 10:47:55;;;;;;;8.18;1.20;;;;;;;16.50;49.43;101757.88;5006647;28;20387;-70
2023/05/16 10:50:53;;;;;;;6.68;2.08;;;;;;;16.64;49.15;101760.75;5007655;28;20588;-69
2023/05/16 10:53:22;;;;;;;5.05;0.93;;;;;;;16.26;49.78;101758.78;4952119;28;20472;-70
2023/05/16 10:55:58;;;;;;;8.15;1.30;;;;;;;16.34;50.68;101757.94;4989154;28;20037;-69
2023/05/16 10:58:37;;;;;;;4.18;0.90;;;;;;;16.43;49.93;101756.91;5005128;28;20026;-69
2023/05/16 11:01:23;;;;;;;5.57;0.85;;;;;;;15.96;50.25;101761.19;5004724;28;20691;-70
2023/05/16 11:04:00;;;;;;;5.38;1.20;;;;;;;15.76;50.34;101762.53;5004674;28;20536;-70
2023/05/16 11:06:26;;;;;;;6.43;1.42;;;;;;;15.65;51.04;101763.69;4988064;28;20117;-70
2023/05/16 11:09:08;;;;;;;9.05;1.20;;;;;;;15.54;52.10;101762.22;4989503;28;20132;-70
2023/05/16 11:11:52;;;;;;;7.40;1.75;;;;;;;15.17;51.97;101762.75;5006133;28;20519;-70
2023/05/16 11:14:32;;;;;;;6.57;1.10;;;;;;;15.05;53.75;101775.31;5007657;28;20411;-69
2023/05/16 11:16:58;;;;;;;9.13;1.02;;;;;;;14.85;54.68;101780.00;4988220;28;20065;-70
2023/05/16 11:19:32;;;;;;;6.40;1.30;;;;;;;14.55;57.37;101789.19;5006290;28;20137;-69